Time;durP1;ratioP1;P1;durP2;ratioP2;P2;SDS_P1;SDS_P2;PMS_P1;PMS_P2;Temp;Humidity;BMP_temperature;BMP_pressure;BME280_temperature;BME280_humidity;BME280_pressure;Samples;Min_cycle;Max_cycle;Signal;HPM_P1;HPM_P2
2023/02/19 00:01:42;;;;;;;;;7.25;5.25;;;;;13.72;64.10;102204.06;4904012;28;45354;-70
2023/02/19 00:04:14;;;;;;;;;6.00;6.00;;;;;13.57;64.17;102177.59;4902687;28;46318;-70
2023/02/19 00:06:40;;;;;;;;;5.25;5.00;;;;;13.57;64.23;102166.88;4893081;29;46537;-70
2023/02/19 00:09:06;;;;;;;;;5.75;5.75;;;;;13.58;64.64;102180.25;4916783;28;45567;-70
2023/02/19 00:11:33;;;;;;;;;8.75;6.00;;;;;13.62;64.49;102184.59;4921130;28;46150;-70
2023/02/19 00:14:00;;;;;;;;;3.75;3.75;;;;;13.47;64.65;102175.09;4903828;28;45495;-70
2023/02/19 00:16:34;;;;;;;;;6.00;6.00;;;;;13.77;64.86;102206.66;4920789;28;45434;-70
2023/02/19 00:19:02;;;;;;;;;4.00;4.00;;;;;13.66;64.80;102197.03;4920994;28;45550;-70
2023/02/19 00:21:28;;;;;;;;;6.25;6.25;;;;;13.68;64.95;102191.63;4920597;28;45525;-70
2023/02/19 00:23:59;;;;;;;;;5.75;4.75;;;;;13.71;65.10;102195.16;4903327;28;45408;-70
2023/02/19 00:26:26;;;;;;;;;5.00;5.00;;;;;13.77;65.12;102201.31;4903442;28;47288;-70
2023/02/19 00:28:54;;;;;;;;;4.50;4.50;;;;;13.79;65.23;102191.41;4923424;28;45421;-70
2023/02/19 00:31:22;;;;;;;;;5.75;5.75;;;;;13.64;65.04;102174.72;4904500;28;45328;-70
2023/02/19 00:33:51;;;;;;;;;6.50;5.50;;;;;13.63;65.17;102181.03;4907000;28;45721;-70
2023/02/19 00:36:17;;;;;;;;;8.00;7.75;;;;;13.77;65.27;102191.44;4905995;28;47142;-70
2023/02/19 00:38:43;;;;;;;;;5.00;5.00;;;;;13.80;65.61;102198.53;4906964;28;45399;-70
2023/02/19 00:41:18;;;;;;;;;3.50;3.50;;;;;13.79;65.53;102197.66;4905990;28;45529;-70
2023/02/19 00:43:56;;;;;;;;;6.50;5.75;;;;;13.77;65.58;102187.88;4928820;28;45478;-70
2023/02/19 00:46:24;;;;;;;;;5.50;4.00;;;;;13.77;65.52;102203.97;4919610;28;46069;-70
2023/02/19 00:48:51;;;;;;;;;6.00;6.00;;;;;13.57;65.86;102157.00;4903280;29;46219;-70
2023/02/19 00:51:17;;;;;;;;;5.00;5.00;;;;;13.71;66.01;102167.41;4920942;28;45402;-70
2023/02/19 00:53:43;;;;;;;;;5.50;5.50;;;;;13.45;65.87;102122.41;4906627;28;45545;-70
2023/02/19 00:56:09;;;;;;;;;4.50;4.50;;;;;13.68;66.15;102170.16;4923718;28;45593;-70
2023/02/19 00:58:34;;;;;;;;;6.00;5.75;;;;;13.50;66.19;102142.84;4906721;28;45373;-70
2023/02/19 01:01:00;;;;;;;;;6.25;6.00;;;;;13.51;66.28;102154.44;4906533;28;45500;-70
2023/02/19 01:03:26;;;;;;;;;8.25;6.50;;;;;13.26;66.29;102097.75;4923986;28;45386;-70
2023/02/19 01:05:51;;;;;;;;;6.00;5.50;;;;;13.48;66.39;102133.94;4919016;28;45595;-70
2023/02/19 01:08:17;;;;;;;;;4.25;4.00;;;;;13.52;66.19;102134.75;4897513;28;45569;-70
2023/02/19 01:10:43;;;;;;;;;6.25;6.25;;;;;13.52;66.70;102137.44;4906548;28;45366;-70
2023/02/19 01:13:08;;;;;;;;;6.75;6.75;;;;;13.60;66.85;102151.56;4906477;28;45356;-70
2023/02/19 01:15:34;;;;;;;;;5.25;5.25;;;;;13.59;66.46;102159.66;4923302;28;45264;-70
2023/02/19 01:17:59;;;;;;;;;4.50;4.50;;;;;13.62;66.76;102160.47;4902870;29;45418;-70
2023/02/19 01:20:25;;;;;;;;;4.25;4.25;;;;;13.39;66.65;102127.91;4920887;28;45831;-70
2023/02/19 01:22:51;;;;;;;;;6.00;6.00;;;;;13.61;66.75;102164.06;4922984;28;45503;-70
2023/02/19 01:25:16;;;;;;;;;6.00;6.00;;;;;13.62;67.22;102168.50;4923161;28;46295;-70
2023/02/19 01:27:42;;;;;;;;;4.50;4.50;;;;;13.34;66.72;102118.16;4923407;28;45396;-70
2023/02/19 01:30:08;;;;;;;;;6.50;6.50;;;;;13.55;66.97;102164.22;4923247;28;45476;-70
2023/02/19 01:32:33;;;;;;;;;4.75;4.75;;;;;13.52;67.14;102157.09;4923363;28;45431;-70
2023/02/19 01:34:58;;;;;;;;;7.50;6.25;;;;;13.35;67.00;102145.88;4906020;28;47767;-70
2023/02/19 01:37:24;;;;;;;;;7.00;5.00;;;;;13.42;67.23;102157.34;4914865;28;45364;-70
2023/02/19 01:39:49;;;;;;;;;6.00;6.00;;;;;13.25;67.27;102114.78;4923020;28;45319;-69
2023/02/19 01:42:15;;;;;;;;;6.00;6.00;;;;;13.37;67.12;102144.03;4927299;28;45532;-70
2023/02/19 01:44:44;;;;;;;;;5.25;5.25;;;;;13.58;67.28;102171.28;4908064;28;45774;-70
2023/02/19 01:47:09;;;;;;;;;5.00;5.00;;;;;13.57;67.07;102177.59;4923117;28;45603;-70
2023/02/19 01:49:53;;;;;;;;;4.75;4.75;;;;;13.57;67.50;102182.97;4905973;28;45537;-70
2023/02/19 01:52:33;;;;;;;;;7.25;5.00;;;;;13.46;67.50;102159.91;4923041;28;45321;-70
2023/02/19 01:55:03;;;;;;;;;3.50;3.50;;;;;13.26;67.22;102124.56;4922407;28;46805;-69
2023/02/19 01:57:36;;;;;;;;;5.75;5.50;;;;;13.28;67.28;102134.34;4905608;28;46097;-70
2023/02/19 02:00:06;;;;;;;;;4.00;4.00;;;;;13.52;67.57;102166.97;4905762;28;45397;-70
2023/02/19 02:02:32;;;;;;;;;5.00;5.00;;;;;13.64;67.31;102188.13;4905561;28;45605;-69
2023/02/19 02:04:59;;;;;;;;;5.00;5.00;;;;;13.65;67.22;102187.22;4903148;28;48188;-69
2023/02/19 02:10:19;;;;;;;;;5.25;5.25;;;;;13.57;67.36;102164.19;4922963;28;45323;-69
2023/02/19 02:12:44;;;;;;;;;6.50;5.50;;;;;13.67;67.27;102182.72;4905500;28;45468;-70
2023/02/19 02:15:11;;;;;;;;;5.50;5.50;;;;;13.68;67.12;102192.53;4905266;28;47021;-69
2023/02/19 02:18:08;;;;;;;;;6.00;5.00;;;;;13.42;67.32;102133.22;4922564;28;45320;-70
2023/02/19 02:21:01;;;;;;;;;5.25;4.25;;;;;13.69;67.25;102178.19;4905525;28;45502;-70
2023/02/19 02:24:04;;;;;;;;;4.50;4.00;;;;;13.68;67.29;102181.81;4905071;28;45485;-70
2023/02/19 02:26:58;;;;;;;;;4.00;4.00;;;;;13.70;67.38;102179.97;4879803;28;48021;-70
2023/02/19 02:30:01;;;;;;;;;4.00;4.00;;;;;13.72;67.41;102174.56;4900311;28;45947;-70
2023/02/19 02:32:35;;;;;;;;;3.50;3.25;;;;;13.73;67.39;102186.16;4903997;28;45425;-70
2023/02/19 02:35:10;;;;;;;;;5.50;4.25;;;;;13.47;67.33;102139.34;4922331;28;45359;-70
2023/02/19 02:37:40;;;;;;;;;6.50;4.00;;;;;13.68;67.33;102181.81;4904759;28;47985;-70
2023/02/19 02:40:07;;;;;;;;;3.50;3.50;;;;;13.68;67.31;102186.25;4905044;28;45399;-70
2023/02/19 02:42:37;;;;;;;;;4.00;3.75;;;;;13.62;67.68;102179.25;4905158;28;45298;-69
2023/02/19 02:45:33;;;;;;;;;3.00;3.00;;;;;13.46;67.41;102157.22;4904820;28;45477;-69
2023/02/19 02:48:07;;;;;;;;;6.00;5.50;;;;;13.43;67.50;102145.69;4904853;28;48018;-70
2023/02/19 02:50:42;;;;;;;;;3.00;3.00;;;;;13.43;67.42;102143.00;4920016;28;45917;-70
2023/02/19 02:56:02;;;;;;;;;4.50;3.00;;;;;13.52;67.02;102153.53;4922180;28;45568;-70
2023/02/19 02:58:30;;;;;;;;;4.75;2.00;;;;;13.53;67.27;102160.66;4921962;28;46098;-69
2023/02/19 03:03:50;;;;;;;;;3.00;2.00;;;;;13.55;66.88;102161.53;4921251;28;45420;-70
2023/02/19 03:06:24;;;;;;;;;3.00;2.00;;;;;13.46;66.86;102151.84;4916022;28;45381;-70
2023/02/19 03:08:58;;;;;;;;;2.00;1.75;;;;;13.28;66.81;102126.31;4902280;28;47214;-70
2023/02/19 03:20:18;;;;;;;;;3.25;2.50;;;;;13.51;66.46;102166.09;4921401;28;45778;-69
2023/02/19 03:22:46;;;;;;;;;2.50;2.00;;;;;13.61;66.56;102179.28;4921702;28;45466;-70
2023/02/19 03:28:09;;;;;;;;;3.00;3.00;;;;;13.66;66.46;102177.38;4921597;28;45294;-70
2023/02/19 03:30:40;;;;;;;;;2.00;1.00;;;;;13.46;66.35;102150.97;4921386;28;46444;-70
2023/02/19 03:33:11;;;;;;;;;2.00;2.00;;;;;13.60;66.39;102159.63;4915082;28;45657;-69
2023/02/19 03:35:43;;;;;;;;;3.00;2.00;;;;;13.48;66.45;102143.78;4904351;28;45494;-70
2023/02/19 03:38:17;;;;;;;;;2.50;2.50;;;;;13.42;66.38;102130.53;4921459;28;45303;-69
2023/02/19 03:40:57;;;;;;;;;2.00;2.00;;;;;13.56;66.11;102171.31;4921564;28;46221;-70
2023/02/19 03:43:33;;;;;;;;;3.00;2.00;;;;;13.65;66.12;102184.56;4916934;28;46184;-70
2023/02/19 03:46:08;;;;;;;;;1.00;1.00;;;;;13.65;66.24;102176.50;4914566;28;45505;-70
2023/02/19 03:48:35;;;;;;;;;0.25;0.25;;;;;13.43;65.96;102151.94;4921312;28;45572;-69
2023/02/19 03:51:22;;;;;;;;;2.50;1.00;;;;;13.62;66.31;102173.00;4920507;28;45619;-69
2023/02/19 03:53:52;;;;;;;;;1.50;1.00;;;;;13.65;66.15;102179.19;4901402;29;45359;-70
2023/02/19 03:56:28;;;;;;;;;0.50;0.50;;;;;13.56;65.61;102160.59;4919484;28;45456;-70
2023/02/19 03:58:57;;;;;;;;;1.00;1.00;;;;;13.57;65.85;102166.88;4904144;28;45563;-69
2023/02/19 04:01:33;;;;;;;;;2.00;2.00;;;;;13.62;65.75;102176.56;4908909;28;46728;-69
2023/02/19 04:04:24;;;;;;;;;1.75;1.00;;;;;13.51;66.14;102176.81;4916188;28;46686;-69
2023/02/19 04:06:54;;;;;;;;;1.25;0.50;;;;;13.46;65.90;102157.22;4900726;28;45436;-70
2023/02/19 04:09:22;;;;;;;;;1.75;1.00;;;;;13.49;65.85;102169.69;4924594;28;45353;-70
2023/02/19 04:11:49;;;;;;;;;1.25;0.25;;;;;13.51;65.93;102175.91;4907270;28;47195;-70
2023/02/19 04:14:34;;;;;;;;;0.50;0.00;;;;;13.42;65.64;102165.41;4924731;28;45530;-70
2023/02/19 04:17:05;;;;;;;;;2.25;0.00;;;;;13.62;65.69;102207.88;4907433;28;45380;-70
2023/02/19 04:19:35;;;;;;;;;1.75;1.00;;;;;13.47;65.80;102183.16;4924227;28;45394;-69
2023/02/19 04:22:03;;;;;;;;;1.00;0.00;;;;;13.61;65.60;102203.44;4923564;28;46730;-70
2023/02/19 04:24:35;;;;;;;;;2.00;0.00;;;;;13.40;65.43;102169.88;4907256;28;45511;-70
2023/02/19 04:27:01;;;;;;;;;0.00;0.00;;;;;13.51;65.82;102187.53;4907001;28;45472;-70
2023/02/19 04:29:26;;;;;;;;;1.00;0.00;;;;;13.57;65.67;102207.97;4924326;28;45332;-70
2023/02/19 04:31:52;;;;;;;;;1.00;0.00;;;;;13.53;65.35;102200.91;4905630;28;47124;-70
2023/02/19 04:34:17;;;;;;;;;0.75;0.75;;;;;13.37;65.37;102161.94;4923788;28;45319;-70
2023/02/19 04:36:43;;;;;;;;;0.00;0.00;;;;;13.54;65.10;102200.00;4903846;29;45448;-70
2023/02/19 04:39:09;;;;;;;;;0.00;0.00;;;;;13.56;65.10;102213.38;4921940;28;45486;-70
2023/02/19 04:41:34;;;;;;;;;0.00;0.00;;;;;13.41;64.75;102191.31;4906764;28;47026;-70
2023/02/19 04:44:02;;;;;;;;;0.00;0.00;;;;;13.53;65.01;102222.34;4906879;28;45705;-70
2023/02/19 04:46:27;;;;;;;;;0.00;0.00;;;;;13.43;64.54;102218.09;4923635;28;45401;-70
2023/02/19 04:48:53;;;;;;;;;1.00;0.00;;;;;13.36;64.19;102203.94;4924095;28;45383;-69
2023/02/19 04:51:18;;;;;;;;;1.75;0.00;;;;;13.39;64.00;102214.59;4906565;28;46742;-70
2023/02/19 04:53:43;;;;;;;;;0.00;0.00;;;;;13.45;63.88;102227.03;4923942;28;45494;-70
2023/02/19 04:56:12;;;;;;;;;1.00;0.00;;;;;13.42;63.80;102225.28;4924041;28;45669;-70
2023/02/19 04:58:38;;;;;;;;;0.00;0.00;;;;;13.36;63.61;102211.09;4924032;28;45365;-70
2023/02/19 05:01:03;;;;;;;;;0.00;0.00;;;;;13.42;63.40;102236.00;4906423;28;47280;-70
2023/02/19 05:03:29;;;;;;;;;1.00;0.00;;;;;13.31;63.56;102221.88;4923387;28;45371;-70
2023/02/19 05:05:54;;;;;;;;;0.00;0.00;;;;;13.22;63.06;102214.03;4922528;28;45387;-70
2023/02/19 05:08:19;;;;;;;;;0.00;0.00;;;;;13.39;63.25;102257.53;4905832;28;45346;-70
2023/02/19 05:10:45;;;;;;;;;0.00;0.00;;;;;13.39;63.26;102254.84;4923621;28;45570;-70
2023/02/19 05:13:10;;;;;;;;;0.00;0.00;;;;;13.16;63.25;102213.25;4923108;28;45485;-69
2023/02/19 05:15:36;;;;;;;;;0.00;0.00;;;;;13.19;63.24;102214.09;4923475;28;45490;-70
2023/02/19 05:18:02;;;;;;;;;1.00;0.00;;;;;13.21;63.46;102217.63;4923657;28;45374;-70
2023/02/19 05:20:27;;;;;;;;;0.00;0.00;;;;;13.12;63.59;102206.16;4923519;28;45523;-69
2023/02/19 05:22:52;;;;;;;;;0.00;0.00;;;;;13.36;63.64;102248.66;4923326;28;45426;-70
2023/02/19 05:25:18;;;;;;;;;0.00;0.00;;;;;13.12;63.88;102211.53;4923387;28;46016;-70
2023/02/19 05:27:43;;;;;;;;;0.00;0.00;;;;;13.13;63.97;102226.72;4923301;28;45489;-70
2023/02/19 05:30:09;;;;;;;;;0.00;0.00;;;;;13.36;63.82;102259.38;4902616;29;47150;-70
2023/02/19 05:32:35;;;;;;;;;0.00;0.00;;;;;13.33;63.92;102253.19;4909475;28;45636;-70
2023/02/19 05:35:00;;;;;;;;;0.00;0.00;;;;;13.24;64.19;102229.19;4903450;28;45388;-69
2023/02/19 05:37:26;;;;;;;;;0.00;0.00;;;;;13.29;63.94;102238.00;4923499;28;45249;-70
2023/02/19 05:39:51;;;;;;;;;0.25;0.00;;;;;13.35;64.27;102247.78;4923136;28;46103;-70
2023/02/19 05:42:17;;;;;;;;;2.25;0.00;;;;;13.41;64.24;102261.06;4923437;28;45440;-70
2023/02/19 05:44:42;;;;;;;;;3.00;0.00;;;;;13.40;64.20;102255.72;4911909;28;45784;-70
2023/02/19 05:47:08;;;;;;;;;3.00;0.00;;;;;13.43;64.08;102272.66;4923220;28;45261;-70
2023/02/19 05:49:33;;;;;;;;;0.00;0.00;;;;;13.16;63.77;102225.75;4905460;28;47777;-70
2023/02/19 05:51:58;;;;;;;;;0.00;0.00;;;;;13.21;63.87;102225.69;4905698;28;45912;-70
2023/02/19 05:54:24;;;;;;;;;0.00;0.00;;;;;13.17;64.11;102230.22;4920508;28;46640;-69
2023/02/19 05:56:49;;;;;;;;;0.00;0.00;;;;;13.19;63.89;102243.59;4912633;28;45329;-70
2023/02/19 05:59:18;;;;;;;;;0.00;0.00;;;;;13.22;63.97;102248.91;4922894;28;45463;-70
2023/02/19 06:01:44;;;;;;;;;0.25;0.25;;;;;13.36;64.31;102275.47;4921744;28;45607;-70
2023/02/19 06:04:11;;;;;;;;;1.00;0.00;;;;;13.16;63.65;102233.78;4922656;28;45501;-69
2023/02/19 06:06:37;;;;;;;;;1.75;0.50;;;;;13.33;63.93;102265.69;4898770;28;45531;-70
2023/02/19 06:09:04;;;;;;;;;0.00;0.00;;;;;13.43;64.17;102280.69;4922751;28;46288;-70
2023/02/19 06:11:29;;;;;;;;;0.00;0.00;;;;;13.19;63.83;102244.47;4905844;28;45453;-70
2023/02/19 06:13:55;;;;;;;;;1.00;1.00;;;;;13.20;63.24;102246.25;4902417;29;45892;-70
2023/02/19 06:16:20;;;;;;;;;3.75;1.00;;;;;13.16;63.25;102253.47;4895964;28;45590;-70
2023/02/19 06:18:47;;;;;;;;;3.00;1.00;;;;;13.13;63.23;102240.13;4902257;29;46726;-70
2023/02/19 06:21:14;;;;;;;;;1.00;0.00;;;;;13.22;63.23;102265.88;4909868;28;45670;-70
2023/02/19 06:23:40;;;;;;;;;1.50;1.50;;;;;13.11;63.33;102241.97;4902922;28;45599;-70
2023/02/19 06:26:07;;;;;;;;;2.00;2.00;;;;;13.41;62.75;102287.00;4904273;28;45287;-70
2023/02/19 06:28:32;;;;;;;;;2.00;0.75;;;;;13.38;62.96;102287.97;4905135;28;48205;-70
2023/02/19 06:30:58;;;;;;;;;1.25;1.25;;;;;13.30;63.08;102285.38;4921431;28;45324;-70
2023/02/19 06:33:25;;;;;;;;;1.00;1.00;;;;;13.37;62.95;102301.41;4913534;28;45363;-70
2023/02/19 06:35:51;;;;;;;;;0.75;0.75;;;;;13.07;62.96;102250.06;4905349;28;45692;-70
2023/02/19 06:38:16;;;;;;;;;1.00;1.00;;;;;13.38;62.77;102303.16;4921078;28;46871;-69
2023/02/19 07:06:12;;;;;;;;;2.00;1.00;;;;;13.23;61.97;102310.56;4650001;30;46515;-70
2023/02/19 09:49:24;;;;;;;;;;;;;;;;;;;;;
2023/02/19 09:55:54;;;;;;;;;4.00;3.00;;;;;13.33;58.48;102416.78;4917508;28;45488;-70
2023/02/19 09:58:19;;;;;;;;;4.00;2.00;;;;;13.55;58.50;102442.31;4897775;28;45644;-69
2023/02/19 10:00:47;;;;;;;;;6.50;3.00;;;;;13.32;58.50;102412.31;4902927;28;45489;-69
2023/02/19 10:03:29;;;;;;;;;5.25;2.25;;;;;13.33;58.88;102408.72;4886259;29;45551;-70
2023/02/19 10:06:08;;;;;;;;;2.00;2.00;;;;;13.56;58.71;102458.41;4917718;28;45522;-70
2023/02/19 10:08:53;;;;;;;;;2.50;2.00;;;;;13.55;58.86;102456.66;4903663;28;45513;-70
2023/02/19 10:11:26;;;;;;;;;3.50;3.50;;;;;13.32;58.80;102412.31;4905828;28;46169;-70
2023/02/19 10:14:08;;;;;;;;;4.25;3.00;;;;;13.55;58.38;102440.56;4907188;28;45554;-70
2023/02/19 10:28:04;;;;;;;;;;;;;;;;;;;;;
2023/02/19 10:37:35;;;;;;;;;;;;;;;;;;;;;
2023/02/19 10:40:03;;;;;;;;;5.75;3.25;;;;;13.66;57.41;102483.28;4726366;30;72706;-73
2023/02/19 12:27:54;;;;;;;;;7.00;6.00;;;;;14.20;57.04;102517.19;4899500;29;45407;-73
2023/02/19 12:31:27;;;;;;;;;5.50;5.50;;;;;14.21;56.69;102511.78;4890815;28;45619;-71
2023/02/19 12:37:27;;;;;;;;;10.25;9.00;;;;;14.20;57.11;102528.84;4793713;29;45690;-71
2023/02/19 12:40:42;;;;;;;;;9.00;7.75;;;;;14.21;57.00;102524.34;4892993;29;46082;-72
2023/02/19 12:43:13;;;;;;;;;11.25;8.75;;;;;14.21;56.81;102497.47;4859680;29;45430;-72
2023/02/19 12:45:48;;;;;;;;;8.50;6.00;;;;;14.03;56.85;102479.91;4884170;29;45542;-74
2023/02/19 12:48:41;;;;;;;;;8.75;6.75;;;;;13.97;57.26;102483.63;4889238;29;46607;-72
2023/02/19 12:51:10;;;;;;;;;6.75;6.75;;;;;14.20;56.95;102506.44;4901159;29;45750;-72
2023/02/19 12:53:48;;;;;;;;;14.25;8.00;;;;;14.20;56.83;102510.03;4899620;29;45731;-71
2023/02/19 12:56:39;;;;;;;;;3.00;3.00;;;;;14.01;57.11;102473.69;4871437;29;45949;-71
2023/02/19 12:59:15;;;;;;;;;10.50;9.00;;;;;14.02;56.88;102479.03;4876983;29;48459;-72
2023/02/19 13:01:54;;;;;;;;;8.00;7.50;;;;;14.04;56.66;102485.25;4901276;29;45443;-71
2023/02/19 13:04:34;;;;;;;;;8.00;8.00;;;;;13.89;56.48;102456.03;4877126;29;46045;-72
2023/02/19 13:07:08;;;;;;;;;6.75;6.75;;;;;14.24;56.56;102500.97;4881006;29;45665;-71
2023/02/19 13:09:52;;;;;;;;;9.00;7.25;;;;;14.15;56.59;102473.41;4900836;29;46351;-71
2023/02/19 13:12:29;;;;;;;;;10.75;9.00;;;;;14.28;56.43;102493.75;4900903;29;45794;-70
2023/02/19 13:14:59;;;;;;;;;7.25;7.00;;;;;14.27;56.27;102490.19;4903693;28;45461;-69
2023/02/19 13:17:42;;;;;;;;;7.50;6.50;;;;;14.27;56.12;102483.94;4900674;29;45447;-71
2023/02/19 13:20:31;;;;;;;;;7.50;7.00;;;;;14.17;56.08;102458.19;4899266;29;45818;-71
2023/02/19 13:26:08;;;;;;;;;6.75;4.50;;;;;13.99;55.70;102416.47;4883415;29;45406;-72
2023/02/19 13:28:43;;;;;;;;;6.75;6.75;;;;;13.89;55.49;102408.56;4881463;29;45747;-72
2023/02/19 13:31:34;;;;;;;;;6.00;6.00;;;;;14.32;55.49;102471.28;4879738;29;45779;-71
2023/02/19 13:34:19;;;;;;;;;6.00;5.00;;;;;14.33;55.55;102462.31;4863455;29;45352;-72
2023/02/19 13:36:48;;;;;;;;;7.00;5.00;;;;;14.34;55.19;102457.84;4881414;29;46436;-72
2023/02/19 13:39:16;;;;;;;;;6.25;5.25;;;;;14.19;55.25;102438.41;4881654;29;45583;-71
2023/02/19 13:41:50;;;;;;;;;8.25;6.75;;;;;14.08;55.23;102410.88;4881109;29;46316;-70
2023/02/19 13:44:24;;;;;;;;;6.00;5.00;;;;;14.24;54.81;102430.28;4866521;29;45883;-70
2023/02/19 13:46:50;;;;;;;;;6.00;6.00;;;;;14.23;54.83;102421.34;4884483;29;45415;-71
2023/02/19 13:49:21;;;;;;;;;7.50;6.25;;;;;14.46;55.02;102457.56;4884950;29;45486;-71
2023/02/19 13:51:50;;;;;;;;;7.75;6.25;;;;;14.27;55.09;102404.22;4885073;29;45613;-71
2023/02/19 13:54:25;;;;;;;;;7.00;6.00;;;;;14.50;54.87;102444.94;4868053;29;45885;-71
2023/02/19 13:57:19;;;;;;;;;6.00;6.00;;;;;14.52;54.91;102435.06;4868129;29;45466;-71
2023/02/19 13:59:45;;;;;;;;;7.00;7.00;;;;;14.52;54.88;102427.00;4857028;29;45510;-71
2023/02/19 14:02:29;;;;;;;;;11.00;9.75;;;;;14.18;54.95;102361.47;4866408;29;47122;-71
2023/02/19 14:05:08;;;;;;;;;8.50;5.75;;;;;14.48;54.97;102404.66;4866357;29;45664;-71
2023/02/19 14:07:46;;;;;;;;;7.50;7.50;;;;;14.32;54.48;102377.28;4884691;29;45425;-71
2023/02/19 14:10:54;;;;;;;;;7.00;7.00;;;;;14.22;54.72;102360.47;4884836;29;45314;-71
2023/02/19 14:13:50;;;;;;;;;9.25;7.50;;;;;14.58;54.74;102413.41;4884670;29;46016;-71
2023/02/19 14:16:38;;;;;;;;;6.50;6.50;;;;;14.18;54.70;102337.31;4884391;29;45330;-71
2023/02/19 14:19:32;;;;;;;;;10.00;9.25;;;;;14.29;54.73;102361.22;4861130;29;45543;-71
2023/02/19 14:21:58;;;;;;;;;9.50;9.50;;;;;14.43;54.30;102382.41;4884409;29;45714;-71
2023/02/19 14:24:24;;;;;;;;;11.00;8.50;;;;;14.48;54.46;102393.91;4866615;29;47057;-71
2023/02/19 14:26:50;;;;;;;;;10.75;10.00;;;;;14.62;54.33;102420.53;4895712;29;45603;-71
2023/02/19 14:29:16;;;;;;;;;10.75;10.75;;;;;14.45;54.22;102396.69;4882275;29;45402;-71
2023/02/19 14:31:45;;;;;;;;;10.00;9.00;;;;;14.44;54.50;102409.22;4880895;29;45369;-71
2023/02/19 14:34:23;;;;;;;;;11.25;11.00;;;;;14.48;54.19;102412.72;4894970;29;45487;-71
2023/02/19 14:36:52;;;;;;;;;11.25;10.75;;;;;14.45;54.91;102405.63;4882600;29;45511;-71
2023/02/19 14:39:30;;;;;;;;;12.50;12.25;;;;;14.65;54.60;102439.28;4896264;29;45341;-71
2023/02/19 14:41:59;;;;;;;;;9.75;9.00;;;;;14.73;54.35;102455.22;4891308;29;45444;-70
2023/02/19 14:44:29;;;;;;;;;13.50;10.75;;;;;14.62;54.32;102444.72;4896103;28;48557;-77
2023/02/19 14:47:10;;;;;;;;;11.75;10.50;;;;;14.63;54.35;102449.16;4884351;29;45591;-75
2023/02/19 14:49:50;;;;;;;;;12.75;12.50;;;;;14.64;54.43;102453.63;4884810;29;45597;-74
2023/02/19 14:52:35;;;;;;;;;9.25;9.00;;;;;14.62;54.68;102453.66;4885660;29;45565;-74
2023/02/19 14:55:13;;;;;;;;;12.25;9.25;;;;;14.58;54.36;102440.28;4867258;29;47557;-76
2023/02/19 14:57:42;;;;;;;;;11.50;8.00;;;;;14.57;54.29;102436.72;4893743;29;45525;-70
2023/02/19 15:00:52;;;;;;;;;13.00;11.75;;;;;14.63;54.35;102457.22;4873848;29;45505;-70
2023/02/19 15:03:35;;;;;;;;;13.50;10.00;;;;;14.46;54.58;102442.31;4898808;29;45548;-70
2023/02/19 15:06:10;;;;;;;;;11.00;9.75;;;;;14.61;54.31;102456.38;4879603;29;47590;-71
2023/02/19 15:08:41;;;;;;;;;13.75;12.25;;;;;14.48;54.35;102444.09;4902368;29;45439;-72
2023/02/19 15:11:16;;;;;;;;;11.75;9.00;;;;;14.64;54.56;102472.44;4902932;29;45413;-72
2023/02/19 15:13:44;;;;;;;;;11.00;11.00;;;;;14.56;54.26;102452.88;4891214;28;45324;-71
2023/02/19 15:16:17;;;;;;;;;9.00;9.00;;;;;14.56;54.25;102477.94;4884499;29;47629;-71
2023/02/19 15:18:45;;;;;;;;;13.00;13.00;;;;;14.38;54.46;102438.03;4902844;29;45523;-71
2023/02/19 15:21:21;;;;;;;;;14.00;10.75;;;;;14.46;54.41;102458.44;4898524;29;45360;-71
2023/02/19 15:23:47;;;;;;;;;11.75;11.00;;;;;14.35;54.55;102439.00;4897254;29;45391;-71
2023/02/19 15:26:21;;;;;;;;;12.00;9.75;;;;;14.32;54.60;102417.56;4899977;29;45569;-71
2023/02/19 15:28:57;;;;;;;;;11.75;11.50;;;;;14.52;54.72;102449.38;4900656;29;45720;-71
2023/02/19 15:31:22;;;;;;;;;11.50;11.50;;;;;14.39;54.77;102416.50;4889313;29;45665;-71
2023/02/19 15:33:50;;;;;;;;;9.25;9.25;;;;;14.68;54.30;102457.13;4901200;29;45415;-71
2023/02/19 15:36:22;;;;;;;;;10.50;9.50;;;;;14.43;54.29;102415.53;4885114;29;46490;-71
2023/02/19 15:38:53;;;;;;;;;13.50;11.00;;;;;14.50;53.96;102424.34;4882516;29;45527;-71
2023/02/19 15:41:22;;;;;;;;;10.75;9.75;;;;;14.70;54.05;102455.28;4902450;29;45492;-71
2023/02/19 15:44:21;;;;;;;;;10.25;9.75;;;;;14.73;53.86;102466.84;4901943;29;45475;-71
2023/02/19 15:46:47;;;;;;;;;13.75;11.25;;;;;14.45;54.02;102429.81;4900751;29;45428;-71
2023/02/19 15:49:29;;;;;;;;;8.25;8.00;;;;;14.61;53.81;102454.56;4898533;28;45580;-71
2023/02/19 15:52:02;;;;;;;;;11.25;11.25;;;;;14.40;53.77;102407.53;4875660;29;45302;-71
2023/02/19 15:54:35;;;;;;;;;15.50;11.50;;;;;14.50;53.82;102418.06;4901974;29;45757;-71
2023/02/19 15:57:06;;;;;;;;;13.25;10.00;;;;;14.56;54.14;102412.56;4881446;29;48193;-71
2023/02/19 15:59:38;;;;;;;;;15.25;11.00;;;;;14.74;53.92;102444.44;4901592;29;45325;-71
2023/02/19 16:02:07;;;;;;;;;12.50;10.00;;;;;14.51;53.58;102417.16;4902442;29;45499;-71
2023/02/19 16:04:34;;;;;;;;;12.25;12.00;;;;;14.66;53.51;102442.84;4884868;29;45497;-71
2023/02/19 16:07:01;;;;;;;;;14.75;12.00;;;;;14.74;54.05;102448.94;4884335;29;46305;-71
2023/02/19 16:09:35;;;;;;;;;13.50;10.00;;;;;14.67;53.62;102442.81;4879155;29;45701;-71
2023/02/19 16:12:02;;;;;;;;;14.50;10.50;;;;;14.59;53.84;102428.66;4884704;29;45348;-71
2023/02/19 16:14:30;;;;;;;;;11.25;11.00;;;;;14.77;54.09;102471.25;4899825;29;45340;-71
2023/02/19 16:17:20;;;;;;;;;7.75;6.50;;;;;14.53;53.99;102421.56;4882518;29;47394;-71
2023/02/19 16:19:57;;;;;;;;;13.25;12.00;;;;;14.58;53.81;102425.06;4866843;29;45668;-71
2023/02/19 16:22:26;;;;;;;;;11.75;10.00;;;;;14.60;53.60;102433.09;4896287;29;45414;-71
2023/02/19 16:24:55;;;;;;;;;11.25;10.75;;;;;14.39;53.49;102391.47;4884472;29;45509;-71
2023/02/19 16:27:33;;;;;;;;;13.75;11.50;;;;;14.39;53.90;102394.16;4901463;29;46403;-71
2023/02/19 16:30:09;;;;;;;;;11.00;10.00;;;;;14.52;54.04;102418.94;4901628;29;45317;-71
2023/02/19 16:32:34;;;;;;;;;13.50;12.00;;;;;14.50;53.68;102407.31;4901592;29;45470;-71
2023/02/19 16:35:00;;;;;;;;;12.00;11.25;;;;;14.54;53.95;102407.22;4883418;29;45393;-71
2023/02/19 16:37:29;;;;;;;;;14.25;12.75;;;;;14.78;54.07;102432.72;4883599;29;46846;-71
2023/02/19 16:40:15;;;;;;;;;13.00;11.75;;;;;14.53;54.17;102399.19;4881609;29;45893;-71
2023/02/19 16:42:50;;;;;;;;;14.75;12.00;;;;;14.65;54.13;102423.16;4878527;29;45683;-71
2023/02/19 16:45:16;;;;;;;;;13.50;13.50;;;;;14.43;53.94;102388.69;4856310;29;46211;-71
2023/02/19 16:47:50;;;;;;;;;5.00;5.00;;;;;14.52;54.29;102401.00;4899350;29;45515;-71
2023/02/19 16:50:22;;;;;;;;;11.00;10.00;;;;;14.64;54.09;102416.00;4898483;29;45692;-71
2023/02/19 16:53:01;;;;;;;;;15.00;13.25;;;;;14.59;53.95;102416.09;4899999;29;45272;-71
2023/02/19 16:55:28;;;;;;;;;13.75;13.50;;;;;14.68;54.27;102432.94;4883877;29;45587;-71
2023/02/19 16:57:54;;;;;;;;;14.50;14.50;;;;;14.76;53.99;102453.34;4853287;29;47424;-72
2023/02/19 17:00:25;;;;;;;;;13.75;13.75;;;;;14.67;54.01;102436.53;4904405;28;45719;-71
2023/02/19 17:02:55;;;;;;;;;14.00;13.25;;;;;14.67;54.49;102439.22;4883886;29;45684;-68
2023/02/19 17:05:23;;;;;;;;;11.75;11.75;;;;;14.34;54.49;102391.56;4893892;28;45439;-72
2023/02/19 17:07:49;;;;;;;;;13.50;11.75;;;;;14.54;54.42;102427.84;4899925;29;46341;-73
2023/02/19 17:10:21;;;;;;;;;14.75;14.25;;;;;14.43;54.52;102409.25;4897436;29;45871;-73
2023/02/19 17:12:47;;;;;;;;;11.25;11.25;;;;;14.61;54.58;102442.94;4902921;29;45600;-73
2023/02/19 17:15:12;;;;;;;;;13.00;12.00;;;;;14.68;54.22;102455.31;4884628;29;45441;-73
2023/02/19 17:17:38;;;;;;;;;13.75;12.00;;;;;14.51;54.46;102433.28;4886407;29;47713;-73
2023/02/19 17:20:20;;;;;;;;;17.00;12.25;;;;;14.66;54.51;102467.91;4884366;29;45525;-73
2023/02/19 17:22:45;;;;;;;;;14.00;13.25;;;;;14.35;54.32;102430.94;4886415;29;45442;-73
2023/02/19 17:25:10;;;;;;;;;11.25;10.50;;;;;14.38;54.66;102438.94;4898837;29;45248;-73
2023/02/19 17:27:36;;;;;;;;;16.25;14.25;;;;;14.37;54.63;102439.84;4895028;29;45723;-73